Xenia, Illinois
Current Conditions -  °F | °C
As of 12:15 PM on Friday 19 Dec 2014 (Local Time) from KFOA Reporting Station
Clear Clear  
Wind Chill: -1°   Ceiling: Unl
Heat Index:   Visibility: 10mi
Dew Point: -4°   Wind: 5mph
Humidity: 68%   Direction: 70°ENE
Pressure: 30.29"   Gusts: NA
Location:  38.64°N, 88.63°W
Report Text: KFOA 191815Z AUTO 07004KT 10SM CLR 02/M04 A3029 RMK AO2 T00151039
Loading
Personal Weather Stations






























Interactive Weather Map New forecast layout! Learn more

10-Day Weather Forecast

Advertisements
Track Severe Weather on mobile